This is the latest recevied weather packets stored in our database for station/object KF0JJO. If no packets are shown the sender has not sent any weather packets the latest 1 day(s).
| Time | Temp. | Humidity | Pressure | Rain* | Wind** | Luminosity | Snow |
|---|---|---|---|---|---|---|---|
| 1778079733 | 5.56° C | 45% | 1048 hPa | 0 mm | - | 170 W/m² | - |
| 1778079430 | 5.56° C | 46% | 1047.9 hPa | 0 mm | - | 159 W/m² | - |
| 1778077312 | 5.56° C | 46% | 1047.9 hPa | 0 mm | - | 180 W/m² | - |
| 1778076102 | 5° C | 48% | 1048 hPa | 0 mm | - | 159 W/m² | - |
| 1778075799 | 5° C | 49% | 1047.9 hPa | 0 mm | - | 154 W/m² | - |
| 1778075495 | 5° C | 49% | 1048.2 hPa | 0 mm | - | 144 W/m² | - |
| 1778075192 | 5° C | 48% | 1048 hPa | 0 mm | - | 143 W/m² | - |
| 1778074585 | 5° C | 49% | 1047.8 hPa | 0 mm | - | 143 W/m² | - |
| 1778074282 | 5° C | 48% | 1047.8 hPa | 0 mm | - | 133 W/m² | - |
| 1778071860 | 3.89° C | 54% | 1047.3 hPa | 0 mm | - | 42 W/m² | - |
| 1778071255 | 3.33° C | 55% | 1047 hPa | 0 mm | - | 40 W/m² | - |
| 1778070651 | 2.78° C | 56% | 1047.1 hPa | 0 mm | - | 32 W/m² | - |
| 1778068834 | 2.22° C | 57% | 1046.7 hPa | 0 mm | - | 24 W/m² | - |
| 1778068230 | 2.22° C | 57% | 1046.7 hPa | 0 mm | - | 21 W/m² | - |
| 1778067927 | 2.22° C | 57% | 1046.6 hPa | 0 mm | - | 19 W/m² | - |
| 1778067625 | 1.67° C | 58% | 1046.5 hPa | 0 mm | - | 18 W/m² | - |
| 1778067323 | 1.67° C | 61% | 1046.4 hPa | 0 mm | - | 16 W/m² | - |
| 1778067020 | 1.11° C | 62% | 1046.5 hPa | 0 mm | - | 14 W/m² | - |
| 1778066716 | 1.11° C | 63% | 1046.2 hPa | 0 mm | - | 12 W/m² | - |
| 1778066414 | 1.11° C | 63% | 1046.5 hPa | 0 mm | - | 10 W/m² | - |
| 1778063386 | 2.22° C | 58% | 1046.2 hPa | 0 mm | - | 0 W/m² | - |
| 1778062478 | 2.22° C | 57% | 1045.9 hPa | 0 mm | - | 0 W/m² | - |
| 1778062175 | 2.22° C | 56% | 1045.9 hPa | 0 mm | - | 0 W/m² | - |
| 1778061571 | 2.22° C | 56% | 1046 hPa | 0 mm | - | 0 W/m² | - |
| 1778060965 | 2.22° C | 57% | 1046 hPa | 0 mm | - | 0 W/m² | - |
* Rain latest hour (hover to see other rain measurements)
** Current wind speed in m/s (hover to see current wind gust speed)